createdAt,value
2023-01-09T00:00:46.205Z,89.37
2023-01-09T00:03:12.883Z,89.36
2023-01-09T00:05:39.646Z,89.44
2023-01-09T00:08:06.196Z,89.24
2023-01-09T00:10:32.807Z,89.52
2023-01-09T00:12:59.486Z,89.41
2023-01-09T00:15:26.150Z,89.57
2023-01-09T00:17:52.846Z,89.39
2023-01-09T00:20:19.414Z,89.36
2023-01-09T00:22:46.074Z,89.29
2023-01-09T00:25:12.655Z,89.33
2023-01-09T00:27:39.345Z,89.19
2023-01-09T00:30:06.450Z,89.14
2023-01-09T00:32:34.014Z,88.96
2023-01-09T00:35:00.652Z,88.96
2023-01-09T00:37:27.385Z,88.63
2023-01-09T00:39:54.033Z,88.67
2023-01-09T00:42:24.521Z,88.62
2023-01-09T00:45:02.275Z,88.67
2023-01-09T00:47:52.658Z,88.52
2023-01-09T00:50:23.811Z,88.56
2023-01-09T00:52:54.473Z,88.67
2023-01-09T00:55:21.269Z,88.78
2023-01-09T00:57:48.208Z,89.03
2023-01-09T01:00:15.924Z,89.01
2023-01-09T01:02:42.547Z,89.13
2023-01-09T01:05:28.491Z,89.23
2023-01-09T01:07:55.257Z,89.47
2023-01-09T01:10:25.379Z,89.69
2023-01-09T01:12:52.570Z,89.70
2023-01-09T01:15:21.133Z,89.91
2023-01-09T01:17:48.213Z,89.79
2023-01-09T01:20:17.797Z,89.66
2023-01-09T01:22:44.811Z,90.01
2023-01-09T01:25:12.973Z,89.81
2023-01-09T01:27:40.356Z,89.85
2023-01-09T01:30:08.516Z,89.77
2023-01-09T01:32:35.126Z,89.81
2023-01-09T01:35:01.829Z,89.96
2023-01-09T01:37:28.592Z,89.88
2023-01-09T01:39:55.381Z,89.85
2023-01-09T01:42:22.325Z,89.82
2023-01-09T01:45:14.928Z,89.57
2023-01-09T01:47:41.509Z,89.89
2023-01-09T01:50:17.295Z,89.85
2023-01-09T01:52:47.504Z,89.75
2023-01-09T01:55:15.119Z,89.97
2023-01-09T01:57:45.948Z,90.01
2023-01-09T02:00:13.116Z,90.18
2023-01-09T02:02:39.799Z,90.25
2023-01-09T02:05:06.885Z,90.16
2023-01-09T02:07:33.701Z,90.11
2023-01-09T02:10:00.323Z,90.07
2023-01-09T02:12:28.186Z,90.24
2023-01-09T02:15:21.175Z,90.30
2023-01-09T02:18:12.633Z,90.12
2023-01-09T02:20:50.856Z,90.00
2023-01-09T02:23:36.009Z,89.90
2023-01-09T02:26:21.114Z,89.82
2023-01-09T02:29:19.541Z,89.92
2023-01-09T02:32:11.081Z,90.01
2023-01-09T02:34:55.617Z,90.14
2023-01-09T02:37:37.092Z,90.20
2023-01-09T02:40:16.105Z,90.25
2023-01-09T02:42:45.666Z,90.69
2023-01-09T02:45:12.265Z,90.92
2023-01-09T02:47:44.716Z,90.80
2023-01-09T02:50:41.811Z,90.71
2023-01-09T02:53:31.626Z,90.64
2023-01-09T02:56:06.966Z,90.62
2023-01-09T02:59:05.221Z,90.59
2023-01-09T03:01:48.235Z,90.67
2023-01-09T03:04:42.079Z,90.45
2023-01-09T03:07:25.401Z,90.30
2023-01-09T03:09:59.788Z,90.41
2023-01-09T03:12:29.701Z,90.61
2023-01-09T03:15:01.511Z,90.50
2023-01-09T03:17:34.911Z,90.55
2023-01-09T03:20:04.894Z,90.59
2023-01-09T03:22:31.607Z,90.57
2023-01-09T03:24:58.160Z,90.67
2023-01-09T03:27:25.047Z,90.75
2023-01-09T03:29:53.432Z,90.65
2023-01-09T03:32:20.403Z,90.57
2023-01-09T03:34:46.924Z,90.58
2023-01-09T03:37:13.496Z,90.39
2023-01-09T03:39:40.476Z,90.42
2023-01-09T03:42:07.080Z,90.34
2023-01-09T03:44:33.706Z,90.21
2023-01-09T03:47:00.375Z,90.17
2023-01-09T03:49:26.948Z,90.07
2023-01-09T03:51:53.508Z,90.23
2023-01-09T03:54:20.221Z,90.40
2023-01-09T03:56:46.829Z,90.44
2023-01-09T03:59:13.420Z,90.54
2023-01-09T04:01:40.138Z,90.44
2023-01-09T04:04:06.848Z,90.48
2023-01-09T04:06:33.497Z,90.43
2023-01-09T04:09:00.060Z,90.53
2023-01-09T04:11:26.700Z,90.63
2023-01-09T04:13:53.316Z,90.56
2023-01-09T04:16:19.876Z,90.64
2023-01-09T04:18:46.523Z,90.66
2023-01-09T04:21:13.224Z,90.51
2023-01-09T04:23:39.958Z,90.46
2023-01-09T04:26:06.670Z,90.41
2023-01-09T04:28:33.398Z,90.06
2023-01-09T04:30:59.979Z,90.02
2023-01-09T04:33:26.547Z,90.08
2023-01-09T04:35:53.163Z,90.09
2023-01-09T04:38:20.120Z,90.25
2023-01-09T04:40:49.828Z,90.20
2023-01-09T04:43:16.419Z,90.23
2023-01-09T04:45:43.025Z,90.39
2023-01-09T04:48:09.748Z,90.47
2023-01-09T04:50:36.424Z,90.29
2023-01-09T04:53:03.026Z,90.31
2023-01-09T04:55:29.820Z,90.24
2023-01-09T04:57:56.495Z,90.43
2023-01-09T05:00:23.167Z,90.54
2023-01-09T05:02:49.804Z,90.54
2023-01-09T05:05:16.395Z,90.61
2023-01-09T05:07:43.059Z,90.54
2023-01-09T05:10:10.931Z,90.42
2023-01-09T05:12:37.793Z,90.52
2023-01-09T05:15:06.652Z,90.62
2023-01-09T05:17:33.319Z,90.57
2023-01-09T05:20:01.130Z,90.39
2023-01-09T05:22:29.050Z,90.31
2023-01-09T05:25:00.271Z,90.62
2023-01-09T05:27:27.456Z,90.56
2023-01-09T05:29:54.165Z,90.41
2023-01-09T05:32:20.723Z,90.38
2023-01-09T05:34:47.324Z,90.38
2023-01-09T05:37:14.106Z,90.13
2023-01-09T05:39:40.741Z,90.20
2023-01-09T05:42:07.422Z,90.00
2023-01-09T05:44:34.016Z,90.06
2023-01-09T05:47:02.660Z,90.13
2023-01-09T05:49:29.469Z,90.21
2023-01-09T05:51:56.068Z,90.16
2023-01-09T05:54:22.801Z,89.87
2023-01-09T05:56:49.497Z,89.91
2023-01-09T05:59:16.083Z,89.85
2023-01-09T06:01:42.767Z,89.87
2023-01-09T06:04:09.403Z,89.88
2023-01-09T06:06:36.025Z,89.95
2023-01-09T06:09:03.661Z,89.90
2023-01-09T06:11:30.298Z,89.89
2023-01-09T06:13:56.915Z,89.64
2023-01-09T06:16:23.627Z,89.46
2023-01-09T06:18:50.625Z,89.53
2023-01-09T06:21:17.313Z,89.42
2023-01-09T06:23:43.871Z,89.37
2023-01-09T06:26:10.573Z,89.46
2023-01-09T06:28:37.121Z,89.69
2023-01-09T06:31:03.822Z,89.82
2023-01-09T06:33:30.511Z,90.02
2023-01-09T06:35:58.489Z,90.06
2023-01-09T06:38:25.793Z,89.97
2023-01-09T06:40:52.368Z,89.88
2023-01-09T06:43:19.042Z,90.11
2023-01-09T06:45:45.626Z,90.40
2023-01-09T06:48:12.600Z,90.33
2023-01-09T06:50:39.300Z,90.58
2023-01-09T06:53:05.940Z,90.45
2023-01-09T06:55:32.616Z,90.77
2023-01-09T06:57:59.219Z,91.22
2023-01-09T07:00:27.357Z,91.51
2023-01-09T07:02:53.999Z,91.54
2023-01-09T07:05:20.540Z,91.39
2023-01-09T07:07:47.106Z,91.26
2023-01-09T07:10:14.348Z,91.05
2023-01-09T07:12:40.995Z,90.88
2023-01-09T07:15:08.075Z,90.83
2023-01-09T07:17:34.716Z,90.38
2023-01-09T07:20:01.606Z,90.24
2023-01-09T07:22:28.585Z,90.22
2023-01-09T07:24:55.202Z,90.02
2023-01-09T07:27:22.376Z,89.79
2023-01-09T07:29:50.215Z,89.82
2023-01-09T07:32:17.487Z,89.78
2023-01-09T07:34:44.093Z,89.37
2023-01-09T07:37:10.750Z,89.47
2023-01-09T07:39:38.852Z,89.26
2023-01-09T07:42:05.403Z,89.33
2023-01-09T07:44:32.042Z,89.28
2023-01-09T07:46:58.788Z,88.98
2023-01-09T07:49:26.842Z,89.00
2023-01-09T07:51:53.731Z,88.86
2023-01-09T07:54:20.563Z,88.67
2023-01-09T07:56:47.207Z,88.79
2023-01-09T07:59:13.919Z,88.56
2023-01-09T08:01:40.584Z,88.44
2023-01-09T08:04:07.451Z,88.10
2023-01-09T08:06:34.128Z,88.16
2023-01-09T08:09:00.857Z,87.86
2023-01-09T08:11:27.575Z,87.04
2023-01-09T08:13:54.258Z,86.82
2023-01-09T08:16:20.961Z,87.17
2023-01-09T08:18:47.711Z,87.39
2023-01-09T08:21:14.468Z,87.97
2023-01-09T08:23:41.088Z,88.06
2023-01-09T08:26:07.714Z,88.40
2023-01-09T08:28:34.379Z,88.60
2023-01-09T08:31:00.897Z,88.13
2023-01-09T08:33:27.525Z,87.56
2023-01-09T08:35:57.086Z,87.49
2023-01-09T08:38:23.681Z,87.84
2023-01-09T08:40:50.419Z,87.98
2023-01-09T08:43:35.836Z,88.30
2023-01-09T08:46:21.067Z,88.26
2023-01-09T08:48:50.597Z,88.45
2023-01-09T08:51:17.267Z,88.39
2023-01-09T08:53:43.990Z,88.30
2023-01-09T08:56:10.573Z,88.06
2023-01-09T08:58:37.308Z,87.78
2023-01-09T09:01:07.738Z,87.88
2023-01-09T09:03:34.441Z,87.83
2023-01-09T09:06:01.275Z,87.16
2023-01-09T09:08:27.820Z,86.41
2023-01-09T09:10:54.488Z,85.76
2023-01-09T09:13:21.151Z,85.81
2023-01-09T09:15:47.909Z,85.25
2023-01-09T09:18:14.626Z,85.03
2023-01-09T09:20:41.244Z,84.96
2023-01-09T09:23:08.422Z,84.67
2023-01-09T09:25:35.323Z,84.33
2023-01-09T09:28:02.035Z,84.00
2023-01-09T09:30:28.896Z,83.82
2023-01-09T09:32:56.080Z,83.63
2023-01-09T09:35:22.986Z,83.40
2023-01-09T09:38:05.007Z,83.39
2023-01-09T09:41:33.724Z,83.19
2023-01-09T09:44:53.415Z,83.13
2023-01-09T09:47:43.490Z,82.91
2023-01-09T09:50:26.425Z,82.74
2023-01-09T09:53:18.898Z,82.59
2023-01-09T09:55:49.766Z,82.56
2023-01-09T09:58:23.005Z,82.41
2023-01-09T10:00:56.338Z,82.42
2023-01-09T10:03:36.337Z,82.23
2023-01-09T10:06:06.047Z,82.16
2023-01-09T10:08:48.818Z,82.18
2023-01-09T10:11:33.026Z,82.00
2023-01-09T10:14:08.250Z,81.75
2023-01-09T10:16:44.311Z,81.49
2023-01-09T10:19:22.754Z,81.55
2023-01-09T10:22:16.817Z,81.12
2023-01-09T10:24:55.514Z,80.89
2023-01-09T10:27:52.504Z,80.86
2023-01-09T10:30:34.289Z,80.67
2023-01-09T10:33:16.883Z,80.65
2023-01-09T10:36:05.157Z,80.62
2023-01-09T10:38:42.538Z,80.61
2023-01-09T10:41:31.504Z,81.06
2023-01-09T10:44:07.408Z,81.39
2023-01-09T10:46:48.287Z,81.99
2023-01-09T10:49:17.696Z,82.32
2023-01-09T10:51:48.949Z,82.60
2023-01-09T10:54:23.648Z,82.90
2023-01-09T10:57:28.702Z,83.03
2023-01-09T10:59:56.562Z,83.16
2023-01-09T11:02:30.779Z,83.18
2023-01-09T11:04:57.359Z,83.43
2023-01-09T11:07:29.210Z,83.69
2023-01-09T11:10:03.317Z,83.80
2023-01-09T11:12:32.631Z,83.69
2023-01-09T11:15:23.872Z,83.75
2023-01-09T11:17:51.817Z,83.77
2023-01-09T11:20:26.243Z,83.64
2023-01-09T11:22:55.251Z,83.61
2023-01-09T11:25:26.605Z,83.90
2023-01-09T11:28:01.958Z,83.83
2023-01-09T11:30:29.655Z,84.09
2023-01-09T11:32:57.944Z,84.11
2023-01-09T11:35:34.641Z,84.28
2023-01-09T11:38:08.980Z,84.38
2023-01-09T11:40:51.797Z,84.40
2023-01-09T11:43:23.087Z,84.43
2023-01-09T11:46:01.216Z,84.76
2023-01-09T11:48:29.964Z,84.85
2023-01-09T11:50:58.966Z,85.36
2023-01-09T11:53:26.886Z,85.64
2023-01-09T11:56:01.260Z,85.90
2023-01-09T11:58:32.226Z,86.29
2023-01-09T12:01:17.069Z,86.57
2023-01-09T12:04:20.609Z,86.70
2023-01-09T12:07:20.163Z,86.94
2023-01-09T12:10:08.617Z,87.34
2023-01-09T12:12:59.393Z,87.74
2023-01-09T12:15:32.443Z,87.97
2023-01-09T12:17:59.031Z,88.30
2023-01-09T12:20:50.662Z,88.34
2023-01-09T12:23:19.988Z,88.50
2023-01-09T12:25:52.772Z,88.74
2023-01-09T12:28:22.214Z,88.70
2023-01-09T12:31:09.988Z,88.89
2023-01-09T12:33:55.883Z,89.32
2023-01-09T12:36:47.065Z,89.26
2023-01-09T12:39:34.844Z,89.58
2023-01-09T12:42:22.004Z,89.63
2023-01-09T12:44:55.289Z,89.80
2023-01-09T12:47:32.299Z,89.87
2023-01-09T12:50:07.602Z,90.22
2023-01-09T12:53:01.231Z,90.23
2023-01-09T12:55:35.918Z,90.39
2023-01-09T12:58:11.773Z,90.62
2023-01-09T13:00:43.061Z,90.51
2023-01-09T13:03:23.919Z,90.67
2023-01-09T13:05:53.449Z,90.61
2023-01-09T13:08:29.723Z,90.61
2023-01-09T13:11:34.519Z,90.61
2023-01-09T13:14:17.857Z,90.81
2023-01-09T13:16:48.929Z,90.68
2023-01-09T13:19:22.996Z,90.70
2023-01-09T13:21:51.166Z,90.87
2023-01-09T13:24:29.696Z,90.85
2023-01-09T13:27:01.676Z,90.97
2023-01-09T13:29:47.241Z,91.26
2023-01-09T13:32:44.045Z,91.20
2023-01-09T13:35:14.140Z,91.33
2023-01-09T13:37:41.240Z,91.32
2023-01-09T13:40:26.768Z,91.55
2023-01-09T13:43:06.606Z,91.65
2023-01-09T13:45:37.039Z,91.60
2023-01-09T13:48:10.022Z,91.86
2023-01-09T13:50:38.290Z,91.81
2023-01-09T13:53:20.263Z,91.94
2023-01-09T13:55:59.466Z,91.84
2023-01-09T13:58:31.617Z,91.92
2023-01-09T14:01:01.036Z,91.84
2023-01-09T14:03:38.335Z,91.88
2023-01-09T14:06:12.155Z,91.75
2023-01-09T14:08:41.990Z,91.57
2023-01-09T14:11:10.218Z,91.51
2023-01-09T14:13:43.784Z,91.37
2023-01-09T14:16:23.300Z,91.36
2023-01-09T14:18:53.410Z,91.33
2023-01-09T14:21:20.253Z,91.32
2023-01-09T14:24:03.528Z,90.99
2023-01-09T14:26:46.990Z,90.88
2023-01-09T14:29:36.036Z,90.95
2023-01-09T14:32:20.947Z,90.90
2023-01-09T14:35:09.219Z,91.05
2023-01-09T14:37:42.919Z,90.86
2023-01-09T14:40:22.947Z,91.01
2023-01-09T14:42:55.472Z,90.85
2023-01-09T14:45:25.635Z,90.84
2023-01-09T14:47:54.789Z,90.94
2023-01-09T14:50:30.439Z,91.02
2023-01-09T14:53:06.611Z,91.25
2023-01-09T14:55:40.139Z,91.06
2023-01-09T14:58:26.919Z,91.21
2023-01-09T15:00:59.776Z,91.32
2023-01-09T15:03:39.688Z,91.40
2023-01-09T15:06:10.527Z,91.40
2023-01-09T15:08:37.378Z,91.37
2023-01-09T15:11:04.053Z,91.51
2023-01-09T15:13:50.179Z,91.59
2023-01-09T15:16:20.011Z,91.51
2023-01-09T15:18:50.538Z,91.49
2023-01-09T15:21:32.178Z,91.52
2023-01-09T15:24:23.374Z,91.60
2023-01-09T15:26:54.782Z,91.38
2023-01-09T15:29:22.886Z,91.69
2023-01-09T15:32:06.343Z,91.86
2023-01-09T15:34:33.853Z,91.73
2023-01-09T15:37:01.581Z,91.76
2023-01-09T15:39:31.919Z,91.91
2023-01-09T15:42:18.970Z,91.80
2023-01-09T15:44:49.125Z,91.85
2023-01-09T15:47:27.790Z,91.95
2023-01-09T15:49:56.660Z,91.95
2023-01-09T15:52:23.768Z,92.03
2023-01-09T15:54:51.034Z,92.09
2023-01-09T15:57:26.520Z,91.99
2023-01-09T15:59:54.385Z,92.00
2023-01-09T16:02:41.619Z,92.27
2023-01-09T16:05:17.061Z,92.36
2023-01-09T16:07:48.539Z,92.30
2023-01-09T16:10:23.812Z,92.25
2023-01-09T16:12:52.787Z,92.28
2023-01-09T16:15:20.752Z,92.40
2023-01-09T16:18:27.986Z,92.40
2023-01-09T16:21:32.937Z,92.30
2023-01-09T16:24:03.953Z,92.41
2023-01-09T16:26:31.835Z,92.64
2023-01-09T16:29:47.650Z,92.55
2023-01-09T16:32:19.833Z,92.59
2023-01-09T16:34:54.208Z,92.58
2023-01-09T16:37:22.695Z,92.63
2023-01-09T16:40:22.082Z,92.83
2023-01-09T16:43:08.200Z,92.73
2023-01-09T16:45:39.591Z,92.75
2023-01-09T16:48:16.203Z,92.89
2023-01-09T16:50:43.267Z,92.96
2023-01-09T16:53:24.285Z,92.70
2023-01-09T16:55:55.797Z,92.87
2023-01-09T16:58:40.736Z,92.76
2023-01-09T17:01:07.408Z,92.84
2023-01-09T17:03:34.018Z,92.85
2023-01-09T17:06:03.308Z,92.78
2023-01-09T17:08:33.428Z,92.90
2023-01-09T17:11:00.121Z,92.92
2023-01-09T17:13:28.765Z,92.83
2023-01-09T17:15:57.741Z,92.78
2023-01-09T17:18:26.643Z,92.69
2023-01-09T17:20:55.196Z,92.83
2023-01-09T17:23:25.577Z,92.94
2023-01-09T17:26:15.566Z,92.85
2023-01-09T17:28:50.753Z,92.88
2023-01-09T17:31:18.187Z,92.87
2023-01-09T17:33:44.906Z,92.98
2023-01-09T17:36:34.577Z,92.72
2023-01-09T17:39:02.004Z,92.94
2023-01-09T17:41:31.957Z,92.71
2023-01-09T17:43:59.759Z,92.95
2023-01-09T17:46:32.646Z,92.79
2023-01-09T17:49:00.713Z,92.89
2023-01-09T17:51:29.324Z,92.86
2023-01-09T17:53:56.371Z,93.02
2023-01-09T17:56:29.451Z,92.86
2023-01-09T17:58:56.417Z,92.78
2023-01-09T18:01:23.091Z,92.92
2023-01-09T18:03:50.687Z,93.08
2023-01-09T18:06:19.950Z,93.00
2023-01-09T18:08:46.998Z,92.96
2023-01-09T18:11:19.676Z,92.90
2023-01-09T18:13:47.820Z,93.05
2023-01-09T18:16:16.974Z,93.14
2023-01-09T18:18:45.171Z,93.14
2023-01-09T18:21:15.718Z,93.23
2023-01-09T18:23:42.389Z,93.35
2023-01-09T18:26:10.773Z,93.22
2023-01-09T18:28:38.628Z,93.24
2023-01-09T18:31:06.680Z,93.23
2023-01-09T18:33:33.425Z,93.19
2023-01-09T18:36:10.915Z,93.21
2023-01-09T18:38:37.527Z,92.96
2023-01-09T18:41:05.015Z,93.25
2023-01-09T18:43:31.655Z,93.28
2023-01-09T18:45:58.358Z,92.93
2023-01-09T18:48:25.155Z,93.03
2023-01-09T18:50:51.725Z,93.07
2023-01-09T18:53:18.308Z,92.84
2023-01-09T18:55:46.873Z,93.02
2023-01-09T18:58:13.518Z,92.89
2023-01-09T19:00:41.435Z,92.88
2023-01-09T19:03:08.072Z,92.91
2023-01-09T19:05:34.995Z,92.82
2023-01-09T19:08:01.924Z,92.75
2023-01-09T19:10:29.189Z,92.55
2023-01-09T19:12:56.465Z,92.63
2023-01-09T19:15:25.805Z,92.71
2023-01-09T19:17:55.694Z,92.61
2023-01-09T19:20:23.334Z,92.47
2023-01-09T19:22:50.395Z,92.58
2023-01-09T19:25:17.807Z,92.76
2023-01-09T19:27:44.660Z,92.66
2023-01-09T19:30:12.824Z,92.65
2023-01-09T19:32:39.932Z,92.44
2023-01-09T19:35:06.890Z,92.75
2023-01-09T19:37:35.106Z,92.34
2023-01-09T19:40:02.887Z,92.47
2023-01-09T19:42:29.506Z,92.59
2023-01-09T19:44:56.242Z,92.59
2023-01-09T19:47:22.780Z,92.65
2023-01-09T19:49:49.615Z,92.73
2023-01-09T19:52:16.274Z,92.57
2023-01-09T19:54:43.022Z,92.59
2023-01-09T19:57:09.647Z,92.82
2023-01-09T19:59:38.482Z,92.58
2023-01-09T20:02:05.143Z,92.81
2023-01-09T20:04:31.677Z,92.81
2023-01-09T20:06:58.354Z,92.79
2023-01-09T20:09:27.589Z,92.86
2023-01-09T20:11:54.259Z,92.92
2023-01-09T20:14:22.413Z,92.95
2023-01-09T20:16:49.922Z,92.93
2023-01-09T20:19:16.656Z,92.60
2023-01-09T20:21:43.702Z,92.66
2023-01-09T20:24:13.971Z,92.73
2023-01-09T20:26:40.854Z,92.74
2023-01-09T20:29:08.642Z,92.76
2023-01-09T20:31:39.601Z,92.74
2023-01-09T20:34:06.168Z,92.73
2023-01-09T20:36:33.005Z,92.69
2023-01-09T20:39:02.032Z,92.63
2023-01-09T20:41:30.918Z,92.70
2023-01-09T20:44:00.167Z,92.92
2023-01-09T20:46:29.106Z,92.84
2023-01-09T20:48:59.928Z,92.82
2023-01-09T20:51:26.571Z,92.72
2023-01-09T20:53:56.739Z,92.59
2023-01-09T20:56:25.627Z,92.89
2023-01-09T20:58:52.855Z,92.77
2023-01-09T21:01:20.012Z,93.09
2023-01-09T21:03:46.783Z,93.07
2023-01-09T21:06:17.365Z,93.12
2023-01-09T21:08:45.293Z,92.93
2023-01-09T21:11:12.151Z,92.96
2023-01-09T21:13:39.401Z,93.01
2023-01-09T21:16:11.729Z,93.28
2023-01-09T21:18:39.031Z,92.98
2023-01-09T21:21:12.048Z,92.94
2023-01-09T21:23:39.439Z,92.93
2023-01-09T21:26:10.519Z,92.88
2023-01-09T21:28:46.002Z,92.79
2023-01-09T21:31:14.026Z,92.85
2023-01-09T21:33:40.751Z,92.77
2023-01-09T21:36:08.555Z,92.73
2023-01-09T21:38:35.191Z,92.48
2023-01-09T21:41:21.740Z,92.43
2023-01-09T21:44:09.787Z,92.75
2023-01-09T21:46:52.163Z,92.45
2023-01-09T21:49:20.512Z,92.46
2023-01-09T21:51:47.459Z,92.41
2023-01-09T21:54:14.529Z,92.44
2023-01-09T21:56:41.238Z,92.37
2023-01-09T21:59:07.911Z,92.34
2023-01-09T22:01:35.070Z,92.34
2023-01-09T22:04:05.294Z,92.47
2023-01-09T22:06:32.003Z,92.06
2023-01-09T22:08:58.567Z,92.11
2023-01-09T22:11:25.335Z,92.27
2023-01-09T22:13:52.249Z,91.92
2023-01-09T22:16:19.700Z,91.81
2023-01-09T22:18:46.405Z,91.84
2023-01-09T22:21:13.367Z,91.84
2023-01-09T22:23:40.088Z,91.81
2023-01-09T22:26:09.093Z,91.63
2023-01-09T22:28:35.694Z,91.73
2023-01-09T22:31:02.336Z,91.71
2023-01-09T22:33:28.938Z,91.69
2023-01-09T22:35:55.609Z,91.79
2023-01-09T22:38:22.527Z,91.84
2023-01-09T22:40:50.409Z,91.72
2023-01-09T22:43:17.347Z,91.93
2023-01-09T22:45:44.044Z,91.65
2023-01-09T22:48:10.882Z,91.80
2023-01-09T22:50:37.589Z,91.90
2023-01-09T22:53:04.282Z,91.84
2023-01-09T22:55:30.914Z,91.60
2023-01-09T22:57:57.542Z,91.63
2023-01-09T23:00:24.305Z,91.63
2023-01-09T23:02:51.100Z,91.54
2023-01-09T23:05:19.719Z,91.54
2023-01-09T23:07:46.311Z,91.57
2023-01-09T23:10:12.989Z,91.47
2023-01-09T23:12:39.609Z,91.40
2023-01-09T23:15:06.957Z,91.47
2023-01-09T23:17:33.578Z,91.67
2023-01-09T23:20:00.200Z,91.68
2023-01-09T23:22:27.028Z,91.66
2023-01-09T23:24:53.567Z,91.44
2023-01-09T23:27:20.119Z,91.58
2023-01-09T23:29:46.728Z,91.66
2023-01-09T23:32:14.212Z,91.57
2023-01-09T23:34:41.708Z,91.63
2023-01-09T23:37:09.741Z,91.55
2023-01-09T23:39:36.370Z,91.75
2023-01-09T23:42:21.466Z,91.54
2023-01-09T23:44:48.062Z,91.39
2023-01-09T23:47:14.728Z,91.89
2023-01-09T23:49:41.428Z,91.52
2023-01-09T23:52:08.809Z,91.63
2023-01-09T23:54:36.269Z,91.59
2023-01-09T23:57:02.954Z,91.49
2023-01-09T23:59:29.522Z,91.64
